Данни от 09.12.2021 г. 15:47:58

Температура вътрешна: 17.3 °C
Температура външна: 13.0 °C
Атмосферно налягане: 992.4 hPa
Атмосферно налягане на морско равнище: 1010.1 hPa
Влажност: 57.0 %



История от последните 24 часа

Дата и часTin [°C]P [hPa]Psl [hPa]H [%]Tout [°C]
   09.12.2021 г. 15:30:58      17.3      992.5      1010.2      56.6      13.4   
   09.12.2021 г. 15:00:58      17.3      992.3      1010.0      57.2      13.8   
   09.12.2021 г. 14:30:58      17.4      992.1      1009.8      56.6      13.6   
   09.12.2021 г. 14:00:58      17.4      992.2      1009.9      56.3      12.4   
   09.12.2021 г. 13:30:58      17.4      992.4      1010.1      56.3      11.2   
   09.12.2021 г. 13:00:58      17.4      992.6      1010.3      56.8      10.0   
   09.12.2021 г. 12:30:58      17.4      993.0      1010.7      56.2      8.8   
   09.12.2021 г. 12:00:58      17.4      993.2      1010.9      56.7      7.6   
   09.12.2021 г. 11:30:58      17.4      993.5      1011.2      56.8      6.4   
   09.12.2021 г. 11:00:58      17.4      994.2      1011.9      56.8      5.5   
   09.12.2021 г. 10:30:58      17.5      994.4      1012.2      56.6      4.3   
   09.12.2021 г. 10:00:58      17.5      994.6      1012.3      57.1      3.8   
   09.12.2021 г. 09:30:58      17.5      994.6      1012.3      57.0      2.6   
   09.12.2021 г. 09:00:58      17.5      994.8      1012.5      57.7      1.9   
   09.12.2021 г. 08:30:58      17.6      994.8      1012.5      56.8      0.8   
   09.12.2021 г. 08:00:58      17.6      994.5      1012.2      56.1      -0.6   
   09.12.2021 г. 07:30:58      17.6      994.3      1012.0      57.5      0.8   
   09.12.2021 г. 07:00:58      17.5      994.3      1012.1      57.2      -0.9   
   09.12.2021 г. 06:30:58      17.8      994.1      1011.8      58.4      -0.1   
   09.12.2021 г. 06:00:58      18.0      993.9      1011.7      59.1      -0.6   
   09.12.2021 г. 05:30:58      18.0      994.1      1011.8      58.6      0.3   
   09.12.2021 г. 05:00:58      18.1      994.2      1012.0      59.3      0.3   
   09.12.2021 г. 04:30:58      18.1      994.3      1012.0      59.9      -0.4   
   09.12.2021 г. 04:00:59      18.2      994.3      1012.0      59.8      0.0   
   09.12.2021 г. 03:30:58      18.2      994.3      1012.1      60.2      1.0   
   09.12.2021 г. 03:00:59      18.2      994.2      1012.0      58.9      0.5   
   09.12.2021 г. 02:30:58      18.3      994.2      1012.0      59.1      1.1   
   09.12.2021 г. 02:00:58      18.3      994.1      1011.9      58.9      0.5   
   09.12.2021 г. 01:30:58      18.4      994.0      1011.8      58.1      1.6   
   09.12.2021 г. 01:00:58      18.4      994.4      1012.2      57.1      1.9   
   09.12.2021 г. 00:30:58      18.5      994.5      1012.3      57.9      1.1   
   09.12.2021 г. 00:00:58      18.5      994.6      1012.4      58.1      2.3   
   08.12.2021 г. 23:30:58      18.6      994.7      1012.5      57.5      2.1   
   08.12.2021 г. 23:00:58      18.7      994.5      1012.3      57.5      1.3   
   08.12.2021 г. 22:30:58      18.8      994.4      1012.1      57.0      1.9   
   08.12.2021 г. 22:00:58      19.0      994.2      1012.0      56.9      2.1   
   08.12.2021 г. 21:30:58      19.4      994.3      1012.0      56.3      3.6   
   08.12.2021 г. 21:00:58      19.4      994.1      1011.8      56.4      3.0   
   08.12.2021 г. 20:30:58      19.1      994.0      1011.8      56.1      3.1   
   08.12.2021 г. 20:00:58      18.9      993.9      1011.7      56.8      2.8   
   08.12.2021 г. 19:30:58      18.8      993.8      1011.5      56.2      4.3   
   08.12.2021 г. 19:00:58      18.5      993.4      1011.1      56.9      5.3   
   08.12.2021 г. 18:30:58      17.8      993.2      1010.9      56.4      7.0   
   08.12.2021 г. 18:00:58      17.8      992.9      1010.6      56.5      6.9   
   08.12.2021 г. 17:30:58      17.7      993.0      1010.7      56.1      7.0   
   08.12.2021 г. 17:00:58      17.7      992.7      1010.4      56.3      7.0   
   08.12.2021 г. 16:30:58      17.8      992.7      1010.4      56.5      6.8   
   08.12.2021 г. 16:00:58      17.8      992.5      1010.2      56.4      7.1   

BaroSL graphic

TEMPE graphic